Time;durP1;ratioP1;P1;durP2;ratioP2;P2;SDS_P1;SDS_P2;PMS_P1;PMS_P2;Temp;Humidity;BMP_temperature;BMP_pressure;BME280_temperature;BME280_humidity;BME280_pressure;Samples;Min_cycle;Max_cycle;Signal;HPM_P1;HPM_P2
2023/06/27 00:01:39;;;;;;;28.65;27.15;;;;;;;;;;5013735;28;20084;-59
2023/06/27 00:04:05;;;;;;;24.98;23.67;;;;;;;;;;5013577;28;20033;-58
2023/06/27 00:06:31;;;;;;;28.70;27.17;;;;;;;;;;5012265;28;20408;-58
2023/06/27 00:08:56;;;;;;;27.92;26.42;;;;;;;;;;5014366;28;20133;-58
2023/06/27 00:11:21;;;;;;;25.60;24.25;;;;;;;;;;5014448;28;20128;-58
2023/06/27 00:13:48;;;;;;;23.60;22.30;;;;;;;;;;5016808;28;20459;-58
2023/06/27 00:16:14;;;;;;;26.65;25.25;;;;;;;;;;5014398;28;20053;-58
2023/06/27 00:18:42;;;;;;;27.10;25.67;;;;;;;;;;5012983;28;20038;-58
2023/06/27 00:21:07;;;;;;;26.33;24.92;;;;;;;;;;5014425;28;20045;-58
2023/06/27 00:23:33;;;;;;;24.63;23.33;;;;;;;;;;5012831;28;20042;-59
2023/06/27 00:26:03;;;;;;;23.30;22.05;;;;;;;;;;5015259;28;20040;-64
2023/06/27 00:28:29;;;;;;;22.23;21.05;;;;;;;;;;5023548;28;20445;-63
2023/06/27 00:30:54;;;;;;;22.75;21.25;;;;;;;;;;5013455;28;20590;-64
2023/06/27 00:33:20;;;;;;;21.95;20.75;;;;;;;;;;5016626;28;20488;-64
2023/06/27 00:35:45;;;;;;;22.58;21.33;;;;;;;;;;5015518;28;20072;-64
2023/06/27 00:38:11;;;;;;;20.52;19.42;;;;;;;;;;5014274;28;20030;-65
2023/06/27 00:40:36;;;;;;;22.33;21.05;;;;;;;;;;5010372;28;20242;-65
2023/06/27 00:43:02;;;;;;;19.90;18.80;;;;;;;;;;5012107;28;20344;-65
2023/06/27 00:45:27;;;;;;;19.38;18.33;;;;;;;;;;5015703;28;20038;-65
2023/06/27 00:47:53;;;;;;;18.05;17.05;;;;;;;;;;5013954;28;20348;-65
2023/06/27 00:50:21;;;;;;;17.48;16.50;;;;;;;;;;5011456;28;20045;-64
2023/06/27 00:52:48;;;;;;;17.48;16.52;;;;;;;;;;5014090;28;20036;-64
2023/06/27 00:55:13;;;;;;;18.48;17.45;;;;;;;;;;5018904;28;20120;-64
2023/06/27 00:57:40;;;;;;;15.95;15.05;;;;;;;;;;5013502;28;20066;-64
2023/06/27 01:00:09;;;;;;;16.80;15.90;;;;;;;;;;5015004;28;20068;-64
2023/06/27 01:02:35;;;;;;;15.38;14.50;;;;;;;;;;5008244;28;20044;-64
2023/06/27 01:05:01;;;;;;;14.38;13.57;;;;;;;;;;5015222;28;20524;-64
2023/06/27 01:07:34;;;;;;;15.65;14.75;;;;;;;;;;5012909;28;20092;-63
2023/06/27 01:10:08;;;;;;;15.77;14.88;;;;;;;;;;5011932;28;20041;-63
2023/06/27 01:12:54;;;;;;;15.43;14.52;;;;;;;;;;5011247;28;20091;-63
2023/06/27 01:15:19;;;;;;;19.25;18.17;;;;;;;;;;5013855;28;20053;-62
2023/06/27 01:17:46;;;;;;;19.08;17.98;;;;;;;;;;5014928;28;20103;-64
2023/06/27 01:20:12;;;;;;;20.90;19.73;;;;;;;;;;5013894;28;20044;-62
2023/06/27 01:22:42;;;;;;;21.02;19.88;;;;;;;;;;5011153;28;20863;-63
2023/06/27 01:25:11;;;;;;;19.42;18.33;;;;;;;;;;5014439;28;20055;-62
2023/06/27 01:27:37;;;;;;;22.85;21.65;;;;;;;;;;5011525;28;20100;-62
2023/06/27 01:30:03;;;;;;;26.05;24.65;;;;;;;;;;5011092;28;20041;-63
2023/06/27 01:32:36;;;;;;;28.52;27.02;;;;;;;;;;5011299;28;20072;-62
2023/06/27 01:35:01;;;;;;;29.25;27.73;;;;;;;;;;5014450;28;20301;-62
2023/06/27 01:37:30;;;;;;;29.25;27.75;;;;;;;;;;5012526;28;20108;-63
2023/06/27 01:40:23;;;;;;;32.97;31.27;;;;;;;;;;5010205;28;20029;-63
2023/06/27 01:42:56;;;;;;;35.58;33.72;;;;;;;;;;5013198;28;20108;-62
2023/06/27 01:45:22;;;;;;;38.95;36.88;;;;;;;;;;5012694;28;20034;-62
2023/06/27 01:47:48;;;;;;;37.72;35.75;;;;;;;;;;5011305;28;20088;-62
2023/06/27 01:50:14;;;;;;;32.17;30.48;;;;;;;;;;5014074;28;20069;-63
2023/06/27 01:52:40;;;;;;;35.47;33.67;;;;;;;;;;5009205;28;20176;-63
2023/06/27 01:55:07;;;;;;;42.50;40.28;;;;;;;;;;5012987;28;20491;-62
2023/06/27 01:57:32;;;;;;;38.58;36.58;;;;;;;;;;5013147;28;20144;-63
2023/06/27 01:59:57;;;;;;;43.45;41.25;;;;;;;;;;5012166;28;20573;-62
2023/06/27 02:02:23;;;;;;;43.03;40.83;;;;;;;;;;5012932;28;20122;-63
2023/06/27 02:04:48;;;;;;;42.90;40.70;;;;;;;;;;5012085;28;20467;-64
2023/06/27 02:07:14;;;;;;;43.92;41.63;;;;;;;;;;5012944;28;20029;-64
2023/06/27 02:09:39;;;;;;;46.80;44.40;;;;;;;;;;5013921;28;21189;-63
2023/06/27 02:12:05;;;;;;;50.08;47.47;;;;;;;;;;5011546;28;20120;-64
2023/06/27 02:14:31;;;;;;;49.20;46.70;;;;;;;;;;5010196;28;20091;-63
2023/06/27 02:16:56;;;;;;;51.75;49.15;;;;;;;;;;5015830;28;20263;-64
2023/06/27 02:19:22;;;;;;;52.70;50.00;;;;;;;;;;5011274;28;20052;-64
2023/06/27 02:21:48;;;;;;;49.25;46.65;;;;;;;;;;5009076;28;20037;-64
2023/06/27 02:24:14;;;;;;;56.20;53.22;;;;;;;;;;5013497;28;20037;-64
2023/06/27 02:26:39;;;;;;;50.65;48.05;;;;;;;;;;5014319;28;20095;-64
2023/06/27 02:29:04;;;;;;;58.20;55.28;;;;;;;;;;5011149;28;20325;-64
2023/06/27 02:31:30;;;;;;;60.13;57.03;;;;;;;;;;5008662;28;20030;-63
2023/06/27 02:33:55;;;;;;;50.28;47.75;;;;;;;;;;5011687;28;20030;-64
2023/06/27 02:36:22;;;;;;;48.75;46.25;;;;;;;;;;5008705;28;20037;-65
2023/06/27 02:38:47;;;;;;;53.70;50.97;;;;;;;;;;5011113;28;20042;-64
2023/06/27 02:41:13;;;;;;;43.25;41.05;;;;;;;;;;5012125;28;20064;-65
2023/06/27 02:43:39;;;;;;;41.45;39.25;;;;;;;;;;5012074;28;20048;-64
2023/06/27 02:46:05;;;;;;;42.53;40.33;;;;;;;;;;5011998;28;20681;-63
2023/06/27 02:48:30;;;;;;;37.40;35.42;;;;;;;;;;5011800;28;20069;-63
2023/06/27 02:50:56;;;;;;;38.60;36.60;;;;;;;;;;5009993;28;20034;-63
2023/06/27 02:53:22;;;;;;;35.28;33.47;;;;;;;;;;5008601;28;20045;-63
2023/06/27 02:55:47;;;;;;;46.58;44.20;;;;;;;;;;5011335;28;20041;-63
2023/06/27 02:58:13;;;;;;;34.28;32.47;;;;;;;;;;5012092;28;20478;-63
2023/06/27 03:00:38;;;;;;;30.63;29.02;;;;;;;;;;5004714;28;20033;-63
2023/06/27 03:03:04;;;;;;;27.15;24.52;;;;;;;;;;5012702;28;20075;-62
2023/06/27 03:05:29;;;;;;;21.90;20.73;;;;;;;;;;5011257;28;20052;-62
2023/06/27 03:07:54;;;;;;;30.77;29.10;;;;;;;;;;5011933;28;20021;-63
2023/06/27 03:10:20;;;;;;;21.88;20.55;;;;;;;;;;5014295;28;20033;-62
2023/06/27 03:12:45;;;;;;;23.58;22.30;;;;;;;;;;5017042;28;20043;-63
2023/06/27 03:15:10;;;;;;;33.75;32.00;;;;;;;;;;5015248;28;20108;-63
2023/06/27 03:17:36;;;;;;;27.75;26.25;;;;;;;;;;5013443;28;20345;-63
2023/06/27 03:20:01;;;;;;;29.60;27.90;;;;;;;;;;5016037;28;20061;-63
2023/06/27 03:22:27;;;;;;;24.40;23.10;;;;;;;;;;5013308;28;20045;-63
2023/06/27 03:24:52;;;;;;;27.08;25.67;;;;;;;;;;5014551;28;20120;-63
2023/06/27 03:27:20;;;;;;;18.35;17.35;;;;;;;;;;5019516;28;20517;-63
2023/06/27 03:29:46;;;;;;;35.60;33.60;;;;;;;;;;5015955;28;20474;-63
2023/06/27 03:32:12;;;;;;;48.00;45.47;;;;;;;;;;5015442;28;20041;-62
2023/06/27 03:34:40;;;;;;;31.58;29.88;;;;;;;;;;5013386;28;20471;-63
2023/06/27 03:37:06;;;;;;;21.58;20.38;;;;;;;;;;5015057;28;20450;-64
2023/06/27 03:39:31;;;;;;;20.02;18.85;;;;;;;;;;5016953;28;20026;-63
2023/06/27 03:41:56;;;;;;;17.85;16.85;;;;;;;;;;5015370;28;20037;-64
2023/06/27 03:44:22;;;;;;;62.58;59.28;;;;;;;;;;5011859;28;20030;-63
2023/06/27 03:46:47;;;;;;;56.70;53.70;;;;;;;;;;5014407;28;20029;-63
2023/06/27 03:49:12;;;;;;;87.82;82.88;;;;;;;;;;5017047;28;20065;-63
2023/06/27 03:51:40;;;;;;;49.15;46.58;;;;;;;;;;5010943;28;20033;-63
2023/06/27 03:54:06;;;;;;;59.72;56.65;;;;;;;;;;5014591;28;20161;-63
2023/06/27 03:56:32;;;;;;;51.08;48.42;;;;;;;;;;5016611;28;20518;-62
2023/06/27 03:58:58;;;;;;;21.65;20.48;;;;;;;;;;5022671;28;20486;-64
2023/06/27 04:01:23;;;;;;;65.85;62.42;;;;;;;;;;5014086;28;20356;-63
2023/06/27 04:03:49;;;;;;;36.40;34.50;;;;;;;;;;5013527;28;20034;-63
2023/06/27 04:06:14;;;;;;;22.75;21.52;;;;;;;;;;5017135;28;20288;-62
2023/06/27 04:08:39;;;;;;;59.45;56.38;;;;;;;;;;5015887;28;20048;-63
2023/06/27 04:11:05;;;;;;;133.90;126.82;;;;;;;;;;5015151;28;20416;-64
2023/06/27 04:13:30;;;;;;;170.18;161.27;;;;;;;;;;5014870;28;20048;-63
2023/06/27 04:15:56;;;;;;;173.18;164.20;;;;;;;;;;5016900;28;20095;-63
2023/06/27 04:18:21;;;;;;;188.00;178.30;;;;;;;;;;5014595;28;20095;-63
2023/06/27 04:20:46;;;;;;;216.88;205.77;;;;;;;;;;5009325;28;20030;-63
2023/06/27 04:23:12;;;;;;;52.03;49.22;;;;;;;;;;5009998;28;20052;-64
2023/06/27 04:25:37;;;;;;;100.00;94.93;;;;;;;;;;5013084;28;20044;-63
2023/06/27 04:28:03;;;;;;;127.63;121.15;;;;;;;;;;5019957;28;20048;-63
2023/06/27 04:30:29;;;;;;;183.38;174.07;;;;;;;;;;5012053;28;20042;-64
2023/06/27 04:32:54;;;;;;;170.57;161.93;;;;;;;;;;5011123;28;20029;-63
2023/06/27 04:35:20;;;;;;;214.55;203.70;;;;;;;;;;5013250;28;20104;-63
2023/06/27 04:37:46;;;;;;;219.07;208.13;;;;;;;;;;5014512;28;20034;-64
2023/06/27 04:40:12;;;;;;;201.55;191.48;;;;;;;;;;5015489;28;20042;-64
2023/06/27 04:42:37;;;;;;;291.67;276.50;;;;;;;;;;5012504;28;20352;-68
2023/06/27 04:45:03;;;;;;;133.93;127.22;;;;;;;;;;5013682;28;20037;-68
2023/06/27 04:47:29;;;;;;;154.35;146.65;;;;;;;;;;5010981;28;20680;-66
2023/06/27 04:49:55;;;;;;;129.25;122.80;;;;;;;;;;5012441;28;20037;-66
2023/06/27 04:52:20;;;;;;;32.88;31.17;;;;;;;;;;5011771;28;20037;-66
2023/06/27 04:54:49;;;;;;;99.53;94.57;;;;;;;;;;5010450;28;22045;-66
2023/06/27 04:57:15;;;;;;;147.98;140.63;;;;;;;;;;5013554;28;20033;-66
2023/06/27 04:59:42;;;;;;;133.90;127.25;;;;;;;;;;5011091;28;20052;-67
2023/06/27 05:02:07;;;;;;;144.43;137.27;;;;;;;;;;5014646;28;20498;-66
2023/06/27 05:04:33;;;;;;;26.10;24.70;;;;;;;;;;5011597;28;20033;-66
2023/06/27 05:06:59;;;;;;;21.90;20.73;;;;;;;;;;5016335;28;20729;-67
2023/06/27 05:09:24;;;;;;;17.88;16.88;;;;;;;;;;5013490;28;20757;-67
2023/06/27 05:11:50;;;;;;;34.10;32.33;;;;;;;;;;5013365;28;20030;-67
2023/06/27 05:14:15;;;;;;;75.10;71.35;;;;;;;;;;5011811;28;20133;-67
2023/06/27 05:16:40;;;;;;;34.38;32.58;;;;;;;;;;5012995;28;20169;-67
2023/06/27 05:19:06;;;;;;;121.72;115.68;;;;;;;;;;5011300;28;21678;-67
2023/06/27 05:21:31;;;;;;;16.48;15.57;;;;;;;;;;5012824;28;20172;-66
2023/06/27 05:23:56;;;;;;;12.48;11.77;;;;;;;;;;5012308;28;20037;-67
2023/06/27 05:26:22;;;;;;;48.95;46.47;;;;;;;;;;5012555;28;20200;-68
2023/06/27 05:28:47;;;;;;;12.77;12.05;;;;;;;;;;5010710;28;20699;-67
2023/06/27 05:31:13;;;;;;;18.77;17.73;;;;;;;;;;5013836;28;20109;-68
2023/06/27 05:33:38;;;;;;;23.58;22.30;;;;;;;;;;5016400;28;20127;-61
2023/06/27 05:36:04;;;;;;;21.67;17.42;;;;;;;;;;5011673;28;20034;-67
2023/06/27 05:38:29;;;;;;;18.08;17.05;;;;;;;;;;5015083;28;20176;-66
2023/06/27 05:40:54;;;;;;;80.57;76.47;;;;;;;;;;5018181;28;20079;-66
2023/06/27 05:43:20;;;;;;;21.00;19.83;;;;;;;;;;5011399;28;20387;-66
2023/06/27 05:45:45;;;;;;;25.95;24.58;;;;;;;;;;5015602;28;20088;-61
2023/06/27 05:48:10;;;;;;;13.40;12.63;;;;;;;;;;5010453;28;20061;-61
2023/06/27 05:50:36;;;;;;;17.27;16.30;;;;;;;;;;5014127;28;20041;-61
2023/06/27 05:53:02;;;;;;;42.78;40.53;;;;;;;;;;5013969;28;20025;-62
2023/06/27 05:55:28;;;;;;;29.55;27.95;;;;;;;;;;5012398;28;20033;-61
2023/06/27 05:57:53;;;;;;;16.15;15.18;;;;;;;;;;5013766;28;20048;-61
2023/06/27 06:00:19;;;;;;;13.43;12.63;;;;;;;;;;5012351;28;20535;-61
2023/06/27 06:02:44;;;;;;;16.00;15.10;;;;;;;;;;5011978;28;20052;-61
2023/06/27 06:05:10;;;;;;;25.90;24.52;;;;;;;;;;5012166;28;20126;-67
2023/06/27 06:07:42;;;;;;;17.10;16.15;;;;;;;;;;5011609;28;20030;-66
2023/06/27 06:10:09;;;;;;;42.83;40.63;;;;;;;;;;5012334;28;20025;-67
2023/06/27 06:12:35;;;;;;;26.48;25.05;;;;;;;;;;5013462;28;20044;-66
2023/06/27 06:15:01;;;;;;;65.13;61.88;;;;;;;;;;5011797;28;20145;-66
2023/06/27 06:17:26;;;;;;;63.45;60.30;;;;;;;;;;5011673;28;20534;-66
2023/06/27 06:19:52;;;;;;;18.23;17.23;;;;;;;;;;5011285;28;20030;-66
2023/06/27 06:22:17;;;;;;;34.13;32.28;;;;;;;;;;5012267;28;20494;-65
2023/06/27 06:24:43;;;;;;;41.75;39.60;;;;;;;;;;5014979;28;20033;-66
2023/06/27 06:27:08;;;;;;;21.05;19.92;;;;;;;;;;5012253;28;20037;-66
2023/06/27 06:29:33;;;;;;;23.60;22.35;;;;;;;;;;5011660;28;20033;-60
2023/06/27 06:31:59;;;;;;;81.00;77.00;;;;;;;;;;5011998;28;20140;-61
2023/06/27 06:34:24;;;;;;;48.67;46.22;;;;;;;;;;5011803;28;20060;-65
2023/06/27 06:36:49;;;;;;;96.97;92.13;;;;;;;;;;5010827;28;20040;-66
2023/06/27 06:39:15;;;;;;;101.75;96.72;;;;;;;;;;5012121;28;20042;-60
2023/06/27 06:41:40;;;;;;;92.72;88.13;;;;;;;;;;5011797;28;20029;-60
2023/06/27 06:44:05;;;;;;;92.15;87.63;;;;;;;;;;5015788;28;20029;-61
2023/06/27 06:46:31;;;;;;;113.82;108.22;;;;;;;;;;5014225;28;20142;-60
2023/06/27 06:48:56;;;;;;;90.53;86.07;;;;;;;;;;5020257;28;20029;-67
2023/06/27 06:51:23;;;;;;;68.88;65.45;;;;;;;;;;5017712;28;20029;-66
2023/06/27 06:53:48;;;;;;;69.13;65.35;;;;;;;;;;5013103;28;20037;-67
2023/06/27 06:56:14;;;;;;;71.07;67.55;;;;;;;;;;5019353;28;20040;-66
2023/06/27 06:58:39;;;;;;;124.70;118.57;;;;;;;;;;5018804;28;20468;-66
2023/06/27 07:01:05;;;;;;;25.60;24.20;;;;;;;;;;5015952;28;20037;-60
2023/06/27 07:03:33;;;;;;;25.42;24.05;;;;;;;;;;5015186;28;20033;-59
2023/06/27 07:05:58;;;;;;;33.88;32.10;;;;;;;;;;5018002;28;20120;-66
2023/06/27 07:08:24;;;;;;;25.42;24.08;;;;;;;;;;5016604;28;20431;-67
2023/06/27 07:10:49;;;;;;;20.55;19.45;;;;;;;;;;5015185;28;20038;-60
2023/06/27 07:13:15;;;;;;;22.00;20.83;;;;;;;;;;5016931;28;20057;-67
2023/06/27 07:15:40;;;;;;;212.20;201.98;;;;;;;;;;5015483;28;20097;-59
2023/06/27 07:18:05;;;;;;;124.82;118.68;;;;;;;;;;5014953;28;20091;-60
2023/06/27 07:20:31;;;;;;;28.50;27.00;;;;;;;;;;5016816;28;20044;-60
2023/06/27 07:22:56;;;;;;;86.55;82.28;;;;;;;;;;5014320;28;20030;-60
2023/06/27 07:25:21;;;;;;;22.58;21.35;;;;;;;;;;5015997;28;20042;-67
2023/06/27 07:27:47;;;;;;;26.23;24.83;;;;;;;;;;5015892;28;20049;-66
2023/06/27 07:30:13;;;;;;;22.80;21.60;;;;;;;;;;4996775;28;20394;-66
2023/06/27 07:32:38;;;;;;;25.58;24.20;;;;;;;;;;5013164;28;20353;-67
2023/06/27 07:35:04;;;;;;;25.00;23.60;;;;;;;;;;5018879;28;20048;-60
2023/06/27 07:37:30;;;;;;;21.55;20.35;;;;;;;;;;5014858;28;20116;-61
2023/06/27 07:39:55;;;;;;;26.55;25.05;;;;;;;;;;5017066;28;20109;-61
2023/06/27 07:42:20;;;;;;;29.98;28.40;;;;;;;;;;5015659;28;20359;-66
2023/06/27 07:44:46;;;;;;;22.60;21.40;;;;;;;;;;5012463;28;20026;-67
2023/06/27 07:47:11;;;;;;;20.90;19.80;;;;;;;;;;5016138;28;20053;-67
2023/06/27 07:49:39;;;;;;;27.50;26.08;;;;;;;;;;5014532;28;20396;-60
2023/06/27 07:52:09;;;;;;;20.90;19.77;;;;;;;;;;5015723;28;20034;-66
2023/06/27 07:54:35;;;;;;;19.52;18.45;;;;;;;;;;5014966;28;20172;-66
2023/06/27 07:57:01;;;;;;;32.38;30.70;;;;;;;;;;5018090;28;20363;-66
2023/06/27 07:59:27;;;;;;;19.05;18.05;;;;;;;;;;5015977;28;20034;-67
2023/06/27 08:01:54;;;;;;;25.27;23.70;;;;;;;;;;5015450;28;20596;-67
2023/06/27 08:04:20;;;;;;;23.80;22.50;;;;;;;;;;5013983;28;20080;-66
2023/06/27 08:06:45;;;;;;;19.77;18.67;;;;;;;;;;5015742;28;20128;-67
2023/06/27 08:09:11;;;;;;;18.83;17.83;;;;;;;;;;5016570;28;20033;-66
2023/06/27 08:11:36;;;;;;;22.23;21.02;;;;;;;;;;5013223;28;20045;-66
2023/06/27 08:14:02;;;;;;;47.45;45.05;;;;;;;;;;5018468;28;20153;-66
2023/06/27 08:16:27;;;;;;;30.17;28.60;;;;;;;;;;5013344;28;20028;-66
2023/06/27 08:18:52;;;;;;;19.38;17.75;;;;;;;;;;5014660;28;20819;-66
2023/06/27 08:21:18;;;;;;;24.48;22.98;;;;;;;;;;5015050;28;20038;-66
2023/06/27 08:23:44;;;;;;;80.32;76.35;;;;;;;;;;5015399;28;20041;-67
2023/06/27 08:26:16;;;;;;;31.92;30.27;;;;;;;;;;5012768;28;20452;-61
2023/06/27 08:28:42;;;;;;;23.90;22.60;;;;;;;;;;5013812;28;20426;-67
2023/06/27 08:31:10;;;;;;;111.90;106.40;;;;;;;;;;5012537;28;20069;-61
2023/06/27 08:33:35;;;;;;;119.15;113.30;;;;;;;;;;5013045;28;20295;-61
2023/06/27 08:36:00;;;;;;;63.88;60.67;;;;;;;;;;5011875;28;20096;-65
2023/06/27 08:38:26;;;;;;;114.25;108.57;;;;;;;;;;5009926;28;20038;-62
2023/06/27 08:40:55;;;;;;;117.28;111.53;;;;;;;;;;5009513;28;20030;-66
2023/06/27 08:43:22;;;;;;;91.97;87.43;;;;;;;;;;5014118;28;20045;-66
2023/06/27 08:45:49;;;;;;;77.72;73.90;;;;;;;;;;5011908;28;20037;-66
2023/06/27 08:48:16;;;;;;;124.93;118.78;;;;;;;;;;5011917;28;20429;-61
2023/06/27 08:50:43;;;;;;;125.50;119.38;;;;;;;;;;5014903;28;20066;-66
2023/06/27 08:53:12;;;;;;;112.78;107.25;;;;;;;;;;5012223;28;20059;-60
2023/06/27 08:56:14;;;;;;;42.90;40.70;;;;;;;;;;5014271;28;20434;-66
2023/06/27 08:58:44;;;;;;;44.13;41.90;;;;;;;;;;5011576;28;20121;-67
2023/06/27 09:01:11;;;;;;;37.75;35.78;;;;;;;;;;5013263;28;20540;-67
2023/06/27 09:03:36;;;;;;;18.40;17.40;;;;;;;;;;5012978;28;20076;-67
2023/06/27 09:06:05;;;;;;;106.28;101.03;;;;;;;;;;5009892;28;20429;-66
2023/06/27 09:08:32;;;;;;;108.82;103.45;;;;;;;;;;5011289;28;20096;-60
2023/06/27 09:10:58;;;;;;;84.97;80.78;;;;;;;;;;5008111;28;20037;-60
2023/06/27 09:13:24;;;;;;;77.05;73.22;;;;;;;;;;5014772;28;20419;-59
2023/06/27 09:15:49;;;;;;;88.68;84.13;;;;;;;;;;5016496;28;20037;-59
2023/06/27 09:18:14;;;;;;;68.97;65.45;;;;;;;;;;5018468;28;20029;-66
2023/06/27 09:20:40;;;;;;;64.85;61.60;;;;;;;;;;5011871;28;20640;-68
2023/06/27 09:23:06;;;;;;;115.55;109.88;;;;;;;;;;5014228;28;20068;-68
2023/06/27 09:25:31;;;;;;;24.70;23.35;;;;;;;;;;5014899;28;20076;-67
2023/06/27 09:27:58;;;;;;;87.22;82.90;;;;;;;;;;5011108;28;20022;-68
2023/06/27 09:30:24;;;;;;;84.85;80.65;;;;;;;;;;5016101;28;20060;-68
2023/06/27 09:32:58;;;;;;;88.47;84.07;;;;;;;;;;5009730;28;20125;-59
2023/06/27 09:35:25;;;;;;;120.47;114.57;;;;;;;;;;5013011;28;20033;-67
2023/06/27 09:37:51;;;;;;;62.63;59.53;;;;;;;;;;5014230;28;20073;-68
2023/06/27 09:40:24;;;;;;;55.17;52.40;;;;;;;;;;5011529;28;20065;-68
2023/06/27 09:42:53;;;;;;;61.55;58.47;;;;;;;;;;5014998;28;20044;-60
2023/06/27 09:45:20;;;;;;;62.78;59.63;;;;;;;;;;5014124;28;20088;-60
2023/06/27 09:47:50;;;;;;;80.47;76.47;;;;;;;;;;5012022;28;20261;-66
2023/06/27 09:50:16;;;;;;;72.20;68.65;;;;;;;;;;5021329;28;20045;-59
2023/06/27 09:53:02;;;;;;;59.92;56.95;;;;;;;;;;5008686;28;20387;-61
2023/06/27 09:55:28;;;;;;;58.28;54.30;;;;;;;;;;5014893;28;20369;-66
2023/06/27 09:57:54;;;;;;;68.10;64.70;;;;;;;;;;5010648;28;20048;-66
2023/06/27 10:00:21;;;;;;;66.53;63.22;;;;;;;;;;5014874;28;20045;-66
2023/06/27 10:02:51;;;;;;;103.25;98.15;;;;;;;;;;5011872;28;20506;-59
2023/06/27 10:05:17;;;;;;;76.05;72.25;;;;;;;;;;5013369;28;20076;-65
2023/06/27 10:07:44;;;;;;;62.95;59.80;;;;;;;;;;5014399;28;20140;-67
2023/06/27 10:10:10;;;;;;;91.80;87.28;;;;;;;;;;5016415;28;20106;-60
2023/06/27 10:12:36;;;;;;;60.63;57.60;;;;;;;;;;5011654;28;20040;-59
2023/06/27 10:15:02;;;;;;;60.83;57.78;;;;;;;;;;5011560;28;20544;-59
2023/06/27 10:17:28;;;;;;;56.13;53.30;;;;;;;;;;5012105;28;20038;-67
2023/06/27 10:19:54;;;;;;;60.75;57.70;;;;;;;;;;5013621;28;20468;-60
2023/06/27 10:22:21;;;;;;;62.17;59.05;;;;;;;;;;5011196;28;20470;-60
2023/06/27 10:24:51;;;;;;;65.80;62.53;;;;;;;;;;5011780;28;20044;-59
2023/06/27 10:27:20;;;;;;;80.32;76.38;;;;;;;;;;5010899;28;20080;-59
2023/06/27 10:29:46;;;;;;;67.13;63.63;;;;;;;;;;5015285;28;20123;-60
2023/06/27 10:32:16;;;;;;;65.60;62.33;;;;;;;;;;5009928;28;20046;-65
2023/06/27 10:34:43;;;;;;;81.22;77.22;;;;;;;;;;5012236;28;20033;-67
2023/06/27 10:37:24;;;;;;;82.78;78.68;;;;;;;;;;5010845;28;20298;-67
2023/06/27 10:39:57;;;;;;;73.75;70.07;;;;;;;;;;5013605;28;20454;-60
2023/06/27 10:42:22;;;;;;;72.10;68.53;;;;;;;;;;5014026;28;20033;-66
2023/06/27 10:44:53;;;;;;;74.97;71.25;;;;;;;;;;5012674;28;20049;-59
2023/06/27 10:47:19;;;;;;;72.30;68.72;;;;;;;;;;5015031;28;20033;-67
2023/06/27 10:49:48;;;;;;;69.22;65.80;;;;;;;;;;5014000;28;20176;-67
2023/06/27 10:52:24;;;;;;;62.65;59.53;;;;;;;;;;5010034;28;20037;-66
2023/06/27 10:55:14;;;;;;;70.30;66.85;;;;;;;;;;5011045;28;20042;-65
2023/06/27 10:57:42;;;;;;;76.22;72.43;;;;;;;;;;5015335;28;20038;-60
2023/06/27 11:00:15;;;;;;;72.82;69.22;;;;;;;;;;5012790;28;20068;-60
2023/06/27 11:02:42;;;;;;;88.60;84.22;;;;;;;;;;5009191;28;20070;-59
2023/06/27 11:05:15;;;;;;;75.22;71.50;;;;;;;;;;5011854;28;20065;-59
2023/06/27 11:07:54;;;;;;;72.18;68.50;;;;;;;;;;5011163;28;20034;-66
2023/06/27 11:10:25;;;;;;;70.07;66.57;;;;;;;;;;5014038;28;20038;-60
2023/06/27 11:12:51;;;;;;;76.20;72.40;;;;;;;;;;5011552;28;20042;-59
2023/06/27 11:15:18;;;;;;;88.80;84.45;;;;;;;;;;5011843;28;20048;-59
2023/06/27 11:17:45;;;;;;;79.80;75.80;;;;;;;;;;5015107;28;20025;-66
2023/06/27 11:20:11;;;;;;;87.10;82.80;;;;;;;;;;5012582;28;20329;-59
2023/06/27 11:22:37;;;;;;;77.97;74.10;;;;;;;;;;5009300;28;20634;-59
2023/06/27 11:25:16;;;;;;;75.45;71.63;;;;;;;;;;5011761;28;20038;-60
2023/06/27 11:27:41;;;;;;;76.90;73.07;;;;;;;;;;5013531;28;20034;-59
2023/06/27 11:30:07;;;;;;;64.00;60.80;;;;;;;;;;5011838;28;20104;-59
2023/06/27 11:32:33;;;;;;;82.15;78.10;;;;;;;;;;5014192;28;20069;-67
2023/06/27 11:34:58;;;;;;;75.97;72.20;;;;;;;;;;5016216;28;20766;-67
2023/06/27 11:37:24;;;;;;;78.53;74.63;;;;;;;;;;5014593;28;20061;-66
2023/06/27 11:39:53;;;;;;;85.82;81.60;;;;;;;;;;5017239;28;20048;-67
2023/06/27 11:42:31;;;;;;;84.18;80.03;;;;;;;;;;5016825;28;20057;-67
2023/06/27 11:44:56;;;;;;;57.72;54.83;;;;;;;;;;5016176;28;20041;-67
2023/06/27 11:47:22;;;;;;;65.07;61.83;;;;;;;;;;5017223;28;20038;-67
2023/06/27 11:49:47;;;;;;;74.97;71.28;;;;;;;;;;5015812;28;20050;-68
2023/06/27 11:52:12;;;;;;;56.15;53.33;;;;;;;;;;5014354;28;20099;-60
2023/06/27 11:54:48;;;;;;;60.10;57.05;;;;;;;;;;5016947;28;20053;-68
2023/06/27 11:57:13;;;;;;;30.92;29.33;;;;;;;;;;5015598;28;20034;-61
2023/06/27 11:59:39;;;;;;;51.05;48.50;;;;;;;;;;5015668;28;20112;-65
2023/06/27 12:02:05;;;;;;;30.42;28.85;;;;;;;;;;5017223;28;20056;-66
2023/06/27 12:04:34;;;;;;;37.25;35.35;;;;;;;;;;5015992;28;20136;-67
2023/06/27 12:07:16;;;;;;;51.83;49.22;;;;;;;;;;5014366;28;20044;-66
2023/06/27 12:09:42;;;;;;;60.15;57.15;;;;;;;;;;5012955;28;20580;-67
2023/06/27 12:12:07;;;;;;;49.83;47.03;;;;;;;;;;5012984;28;20033;-66
2023/06/27 12:14:33;;;;;;;38.08;36.13;;;;;;;;;;5015726;28;20515;-66
2023/06/27 12:17:02;;;;;;;26.25;24.85;;;;;;;;;;5012010;28;20026;-65
2023/06/27 12:19:27;;;;;;;25.25;23.92;;;;;;;;;;5017634;28;20044;-66
2023/06/27 12:21:53;;;;;;;28.10;26.60;;;;;;;;;;5013543;28;20029;-66
2023/06/27 12:24:20;;;;;;;26.98;25.58;;;;;;;;;;5013205;28;20030;-66
2023/06/27 12:26:46;;;;;;;30.80;29.15;;;;;;;;;;5014378;28;20467;-66
2023/06/27 12:29:11;;;;;;;24.33;23.02;;;;;;;;;;5016260;28;20038;-67
2023/06/27 12:31:37;;;;;;;26.30;24.90;;;;;;;;;;5013526;28;20025;-67
2023/06/27 12:34:03;;;;;;;26.42;25.02;;;;;;;;;;5014877;28;20469;-69
2023/06/27 12:36:33;;;;;;;25.83;24.42;;;;;;;;;;5014374;28;20042;-67
2023/06/27 12:38:59;;;;;;;26.73;25.33;;;;;;;;;;5014018;28;20164;-65
2023/06/27 12:41:26;;;;;;;30.50;28.90;;;;;;;;;;5018875;28;20817;-67
2023/06/27 12:43:52;;;;;;;27.67;26.25;;;;;;;;;;5012653;28;20029;-68
2023/06/27 12:46:17;;;;;;;31.70;30.08;;;;;;;;;;5010238;28;20026;-68
2023/06/27 12:48:44;;;;;;;37.78;35.85;;;;;;;;;;5015728;28;20044;-69
2023/06/27 12:51:11;;;;;;;41.30;39.13;;;;;;;;;;5012746;28;20033;-68
2023/06/27 12:53:37;;;;;;;40.17;38.10;;;;;;;;;;5021654;28;20428;-68
2023/06/27 12:56:02;;;;;;;38.30;36.35;;;;;;;;;;5014078;28;20084;-68
2023/06/27 12:58:28;;;;;;;43.17;40.90;;;;;;;;;;5013072;28;20036;-69
2023/06/27 13:00:56;;;;;;;32.88;31.17;;;;;;;;;;5012588;28;20029;-69
2023/06/27 13:03:22;;;;;;;39.78;37.72;;;;;;;;;;5014367;28;20026;-69
2023/06/27 13:05:48;;;;;;;48.58;45.90;;;;;;;;;;5014141;28;20033;-59
2023/06/27 13:08:15;;;;;;;59.08;56.15;;;;;;;;;;5014071;28;20041;-59
2023/06/27 13:10:41;;;;;;;35.13;33.25;;;;;;;;;;5014451;28;20041;-60
2023/06/27 13:13:06;;;;;;;75.22;71.50;;;;;;;;;;5012004;28;20030;-59
2023/06/27 13:15:31;;;;;;;35.00;33.15;;;;;;;;;;5016285;28;20037;-59
2023/06/27 13:17:56;;;;;;;81.20;77.18;;;;;;;;;;5015431;28;20030;-59
2023/06/27 13:20:25;;;;;;;41.08;38.97;;;;;;;;;;5011288;28;20100;-59
2023/06/27 13:22:51;;;;;;;33.95;32.20;;;;;;;;;;5014273;28;20543;-60
2023/06/27 13:25:16;;;;;;;49.83;47.30;;;;;;;;;;5013931;28;20064;-60
2023/06/27 13:27:42;;;;;;;53.92;51.17;;;;;;;;;;5014865;28;20037;-61
2023/06/27 13:30:08;;;;;;;49.20;46.70;;;;;;;;;;5016041;28;20033;-61
2023/06/27 13:32:34;;;;;;;55.17;52.40;;;;;;;;;;5012708;28;20040;-61
2023/06/27 13:35:00;;;;;;;27.27;25.85;;;;;;;;;;5015748;28;20404;-60
2023/06/27 13:37:26;;;;;;;35.08;33.25;;;;;;;;;;5014291;28;20116;-60
2023/06/27 13:39:51;;;;;;;35.53;33.42;;;;;;;;;;5009395;28;20029;-60
2023/06/27 13:42:17;;;;;;;27.02;25.63;;;;;;;;;;5013308;28;20035;-61
2023/06/27 13:44:43;;;;;;;25.98;24.42;;;;;;;;;;5013046;28;20468;-60
2023/06/27 13:47:08;;;;;;;28.88;27.38;;;;;;;;;;5012825;28;20468;-61
2023/06/27 13:49:34;;;;;;;36.88;34.97;;;;;;;;;;5020135;28;20034;-62
2023/06/27 13:52:03;;;;;;;40.97;38.85;;;;;;;;;;5009782;28;20602;-60
2023/06/27 13:54:28;;;;;;;26.48;25.08;;;;;;;;;;5015709;28;20631;-60
2023/06/27 13:56:53;;;;;;;30.70;29.10;;;;;;;;;;5011408;28;20129;-60
2023/06/27 13:59:19;;;;;;;32.95;31.25;;;;;;;;;;5013417;28;20140;-60
2023/06/27 14:01:44;;;;;;;28.17;26.67;;;;;;;;;;5009973;28;20068;-59
2023/06/27 14:04:10;;;;;;;33.40;31.70;;;;;;;;;;5010990;28;20037;-60
2023/06/27 14:06:36;;;;;;;30.95;29.35;;;;;;;;;;5009323;28;20365;-60
2023/06/27 14:09:02;;;;;;;57.40;54.53;;;;;;;;;;5008453;28;20029;-59
2023/06/27 14:11:27;;;;;;;28.55;27.05;;;;;;;;;;5010693;28;20519;-61